createdAt,value
2022-11-13T18:58:16.179Z,1.83
2022-11-13T18:59:38.042Z,1.20
2022-11-13T19:01:22.274Z,1.20
2022-11-13T19:02:44.789Z,1.73
2022-11-13T19:04:25.278Z,1.35
2022-11-13T19:05:49.670Z,1.58
2022-11-13T19:07:12.702Z,1.67
2022-11-13T19:08:40.696Z,1.60
2022-11-13T19:10:04.110Z,1.20
2022-11-13T19:11:27.758Z,1.75
2022-11-13T19:12:48.848Z,1.65
2022-11-13T19:14:11.246Z,1.85
2022-11-13T19:15:37.833Z,1.65
2022-11-13T19:16:58.972Z,1.85
2022-11-13T19:18:19.895Z,1.67
2022-11-13T19:19:43.586Z,2.25
2022-11-13T19:21:26.472Z,1.58
2022-11-13T19:22:47.218Z,1.67
2022-11-13T19:24:08.982Z,1.50
2022-11-13T19:25:30.205Z,1.30
2022-11-13T19:26:53.971Z,1.55
2022-11-13T19:28:15.175Z,1.55
2022-11-13T19:29:37.335Z,1.50
2022-11-13T19:31:06.158Z,1.60
2022-11-13T19:32:30.646Z,1.48
2022-11-13T19:34:19.744Z,1.48
2022-11-13T19:35:44.650Z,1.73
2022-11-13T19:37:19.484Z,1.80
2022-11-13T19:38:45.163Z,1.52
2022-11-13T19:40:07.799Z,1.67
2022-11-13T19:41:33.098Z,1.70
2022-11-13T19:42:57.831Z,1.50
2022-11-13T19:44:21.946Z,1.70
2022-11-13T20:49:32.457Z,1.65
2022-11-13T20:52:05.620Z,1.40
2022-11-13T20:54:15.912Z,1.05
2022-11-13T20:56:07.875Z,1.20
2022-11-13T21:00:34.461Z,1.23
2022-11-13T21:02:05.731Z,1.10
2022-11-13T21:03:41.775Z,1.05
2022-11-13T21:05:06.520Z,1.38
2022-11-13T21:06:36.140Z,1.10
2022-11-13T21:08:06.076Z,1.00
2022-11-13T21:09:53.426Z,1.17
2022-11-13T21:11:29.393Z,1.00
2022-11-13T21:12:51.267Z,1.00
2022-11-13T21:20:33.602Z,0.95
2022-11-13T21:27:05.386Z,1.20
2022-11-13T21:40:02.402Z,0.90
2022-11-13T21:46:10.274Z,1.00
2022-11-13T21:48:21.072Z,0.90
2022-11-13T21:56:29.344Z,1.08
2022-11-13T21:59:57.874Z,1.30
2022-11-13T22:01:36.639Z,1.05
2022-11-13T22:04:43.375Z,1.02
2022-11-13T22:06:36.934Z,1.00
2022-11-13T22:08:00.243Z,1.00
2022-11-13T22:09:30.563Z,1.40
2022-11-13T22:10:58.051Z,1.10
2022-11-13T22:13:44.981Z,1.25
2022-11-13T22:15:18.783Z,0.98
2022-11-13T22:16:46.106Z,1.27
2022-11-13T22:19:38.151Z,0.98
2022-11-13T22:21:10.516Z,1.10
2022-11-13T22:22:39.176Z,1.15
2022-11-13T22:24:07.040Z,1.08
2022-11-13T22:27:24.378Z,1.10
2022-11-13T22:29:00.073Z,1.13
2022-11-13T22:32:05.502Z,1.05
2022-11-13T22:33:35.836Z,0.90
2022-11-13T22:35:01.513Z,0.82
2022-11-13T22:36:28.957Z,0.80
2022-11-13T22:37:51.142Z,0.90
2022-11-13T22:39:16.911Z,0.90
2022-11-13T22:40:41.571Z,0.75
2022-11-13T22:42:10.740Z,1.00
2022-11-13T22:43:48.437Z,0.80
2022-11-13T22:45:23.630Z,0.75
2022-11-13T22:46:47.450Z,0.80
2022-11-13T22:48:14.357Z,0.70
2022-11-13T22:49:41.401Z,0.82
2022-11-13T22:51:31.479Z,0.95
2022-11-13T22:53:06.190Z,0.95
2022-11-13T22:54:38.877Z,0.98
2022-11-13T22:56:08.603Z,0.90
2022-11-13T22:57:38.267Z,0.88
2022-11-13T22:59:04.322Z,1.00
2022-11-13T23:00:36.035Z,0.75
2022-11-13T23:02:34.826Z,0.82
2022-11-13T23:04:06.701Z,0.80
2022-11-13T23:05:38.793Z,1.00
2022-11-13T23:09:39.431Z,1.00
2022-11-13T23:11:40.324Z,0.85
2022-11-13T23:13:30.911Z,0.80
2022-11-13T23:14:55.909Z,0.90
2022-11-13T23:16:24.888Z,1.00
2022-11-13T23:18:19.061Z,0.98
2022-11-13T23:19:54.835Z,0.95
2022-11-13T23:21:30.350Z,1.02
2022-11-13T23:23:05.670Z,1.20
2022-11-13T23:25:23.118Z,0.88
2022-11-13T23:26:57.124Z,0.93
2022-11-13T23:28:24.862Z,1.00
2022-11-13T23:29:59.490Z,0.85
2022-11-13T23:31:38.607Z,0.70
2022-11-13T23:33:33.645Z,0.73
2022-11-13T23:35:02.097Z,0.57
2022-11-13T23:36:28.471Z,0.70
2022-11-13T23:43:15.663Z,0.82
2022-11-13T23:44:44.354Z,0.63
2022-11-13T23:46:25.898Z,0.60
2022-11-13T23:47:54.436Z,0.50
2022-11-13T23:51:41.821Z,0.70
2022-11-13T23:53:29.052Z,0.63
2022-11-13T23:54:59.718Z,0.75
2022-11-13T23:56:53.213Z,0.50
